Time;durP1;ratioP1;P1;durP2;ratioP2;P2;SDS_P1;SDS_P2;PMS_P1;PMS_P2;Temp;Humidity;BMP_temperature;BMP_pressure;BME280_temperature;BME280_humidity;BME280_pressure;Samples;Min_cycle;Max_cycle;Signal;HPM_P1;HPM_P2
2022/09/22 00:02:13;;;;;;;4.32;2.55;;;;;;;;;;5089024;28;21052;-15
2022/09/22 00:04:40;;;;;;;3.05;2.40;;;;;;;;;;5085950;28;20655;-15
2022/09/22 00:07:08;;;;;;;5.35;2.75;;;;;;;;;;5070553;28;20279;-15
2022/09/22 00:09:35;;;;;;;8.00;3.42;;;;;;;;;;5070628;28;20225;-15
2022/09/22 00:12:02;;;;;;;5.60;2.47;;;;;;;;;;5051116;28;20230;-15
2022/09/22 00:14:30;;;;;;;4.68;2.55;;;;;;;;;;5050654;28;20693;-15
2022/09/22 00:16:57;;;;;;;3.17;2.10;;;;;;;;;;5084364;28;21014;-15
2022/09/22 00:19:27;;;;;;;3.38;2.30;;;;;;;;;;5094141;28;20239;-15
2022/09/22 00:21:54;;;;;;;3.17;2.30;;;;;;;;;;5058838;28;20237;-15
2022/09/22 00:24:22;;;;;;;3.83;2.40;;;;;;;;;;5054464;28;20691;-15
2022/09/22 00:26:49;;;;;;;2.15;1.92;;;;;;;;;;5058950;28;20399;-15
2022/09/22 00:29:17;;;;;;;5.13;2.53;;;;;;;;;;5074020;28;20222;-15
2022/09/22 00:31:45;;;;;;;3.10;2.42;;;;;;;;;;5086313;28;20244;-15
2022/09/22 00:34:14;;;;;;;3.70;2.60;;;;;;;;;;5094466;28;20306;-15
2022/09/22 00:36:42;;;;;;;3.85;2.65;;;;;;;;;;5094224;28;20908;-15
2022/09/22 00:39:10;;;;;;;4.38;2.38;;;;;;;;;;5075776;28;20708;-15
2022/09/22 00:41:40;;;;;;;2.88;2.10;;;;;;;;;;5059160;28;20890;-15
2022/09/22 00:44:26;;;;;;;3.70;2.30;;;;;;;;;;5053015;28;20222;-15
2022/09/22 00:46:54;;;;;;;3.53;2.45;;;;;;;;;;5084452;28;20702;-15
2022/09/22 00:49:22;;;;;;;4.55;2.33;;;;;;;;;;5082887;28;20348;-15
2022/09/22 00:51:51;;;;;;;2.80;2.35;;;;;;;;;;5073196;28;21054;-15
2022/09/22 00:54:18;;;;;;;4.47;2.47;;;;;;;;;;5073760;28;20233;-15
2022/09/22 00:56:47;;;;;;;2.72;2.38;;;;;;;;;;5073523;28;20344;-14
2022/09/22 00:59:14;;;;;;;4.55;2.47;;;;;;;;;;5072401;28;20260;-15
2022/09/22 01:01:42;;;;;;;2.47;2.10;;;;;;;;;;5073087;28;20295;-15
2022/09/22 01:04:09;;;;;;;2.72;2.10;;;;;;;;;;5073216;28;21038;-15
2022/09/22 01:06:37;;;;;;;3.00;1.80;;;;;;;;;;5073450;28;20700;-15
2022/09/22 01:09:06;;;;;;;3.20;2.03;;;;;;;;;;5073039;28;20234;-15
2022/09/22 01:11:33;;;;;;;5.40;1.95;;;;;;;;;;5072658;28;20237;-15
2022/09/22 01:14:03;;;;;;;2.90;2.05;;;;;;;;;;5073205;28;20237;-15
2022/09/22 01:16:34;;;;;;;2.53;1.98;;;;;;;;;;5085600;28;20295;-15
2022/09/22 01:19:08;;;;;;;2.97;2.00;;;;;;;;;;5093500;28;20228;-15
2022/09/22 01:21:37;;;;;;;2.63;2.00;;;;;;;;;;5080708;28;20295;-15
2022/09/22 01:24:11;;;;;;;4.70;2.22;;;;;;;;;;5073030;28;20217;-15
2022/09/22 01:26:53;;;;;;;5.75;2.13;;;;;;;;;;5078077;28;20366;-15
2022/09/22 01:29:33;;;;;;;3.33;2.20;;;;;;;;;;5071658;28;20229;-15
2022/09/22 01:32:02;;;;;;;3.03;1.92;;;;;;;;;;5070744;28;20292;-15
2022/09/22 01:34:30;;;;;;;4.30;2.20;;;;;;;;;;5065818;28;20233;-15
2022/09/22 01:36:58;;;;;;;3.97;1.90;;;;;;;;;;5071692;28;21026;-15
2022/09/22 01:39:26;;;;;;;4.30;2.38;;;;;;;;;;5072354;28;20237;-15
2022/09/22 01:41:57;;;;;;;4.38;2.08;;;;;;;;;;5072412;28;20230;-16
2022/09/22 01:44:25;;;;;;;5.22;1.90;;;;;;;;;;5072539;28;20229;-15
2022/09/22 01:46:54;;;;;;;3.22;2.00;;;;;;;;;;5088143;28;21108;-15
2022/09/22 01:49:23;;;;;;;2.20;2.00;;;;;;;;;;5081950;28;20233;-15
2022/09/22 01:51:52;;;;;;;5.70;2.00;;;;;;;;;;5072064;28;20303;-15
2022/09/22 01:54:21;;;;;;;3.65;1.80;;;;;;;;;;5073120;28;20248;-15
2022/09/22 01:56:49;;;;;;;2.17;1.63;;;;;;;;;;5072753;28;20981;-15
2022/09/22 01:59:17;;;;;;;4.32;2.13;;;;;;;;;;5071337;28;20237;-16
2022/09/22 02:01:44;;;;;;;2.80;1.98;;;;;;;;;;5059060;28;20308;-15
2022/09/22 02:04:14;;;;;;;2.40;1.83;;;;;;;;;;5052525;28;20234;-15
2022/09/22 02:06:43;;;;;;;2.50;1.92;;;;;;;;;;5052457;28;20308;-15
2022/09/22 02:09:11;;;;;;;3.13;1.55;;;;;;;;;;5052263;28;20230;-15
2022/09/22 02:11:38;;;;;;;3.38;1.85;;;;;;;;;;5063735;28;20303;-15
2022/09/22 02:14:05;;;;;;;4.15;1.83;;;;;;;;;;5072711;28;20291;-15
2022/09/22 02:16:33;;;;;;;2.63;1.85;;;;;;;;;;5084916;28;20290;-15
2022/09/22 02:19:01;;;;;;;2.33;1.90;;;;;;;;;;5092598;28;20232;-15
2022/09/22 02:21:39;;;;;;;2.88;1.77;;;;;;;;;;5095078;22;20253;-19
2022/09/22 02:24:21;;;;;;;2.13;1.70;;;;;;;;;;5064792;28;20287;-19
2022/09/22 02:26:50;;;;;;;2.33;1.73;;;;;;;;;;5061000;28;20238;-19
2022/09/22 02:29:17;;;;;;;2.20;1.95;;;;;;;;;;5052908;28;20229;-19
2022/09/22 02:31:44;;;;;;;3.08;2.17;;;;;;;;;;5056292;28;20281;-19
2022/09/22 02:34:12;;;;;;;5.47;2.05;;;;;;;;;;5069608;28;21176;-19
2022/09/22 02:36:42;;;;;;;2.72;1.75;;;;;;;;;;5072810;28;21053;-19
2022/09/22 02:39:09;;;;;;;3.97;1.80;;;;;;;;;;5071598;28;20263;-19
2022/09/22 02:41:39;;;;;;;3.35;2.03;;;;;;;;;;5072168;28;20959;-19
2022/09/22 02:44:08;;;;;;;2.28;1.90;;;;;;;;;;5071778;28;20279;-19
2022/09/22 02:46:37;;;;;;;3.17;1.90;;;;;;;;;;5071914;28;20238;-19
2022/09/22 02:49:05;;;;;;;2.25;1.80;;;;;;;;;;5071235;28;20221;-19
2022/09/22 02:51:33;;;;;;;2.05;1.83;;;;;;;;;;5071807;28;20225;-19
2022/09/22 02:54:00;;;;;;;3.40;1.95;;;;;;;;;;5079749;28;20248;-19
2022/09/22 02:56:28;;;;;;;4.88;2.40;;;;;;;;;;5071743;28;20234;-19
2022/09/22 02:58:55;;;;;;;3.35;1.77;;;;;;;;;;5072398;28;20986;-19
2022/09/22 03:01:26;;;;;;;2.38;1.70;;;;;;;;;;5071868;28;21112;-19
2022/09/22 03:03:53;;;;;;;2.53;1.80;;;;;;;;;;5059763;28;20229;-18
2022/09/22 03:06:21;;;;;;;2.90;1.55;;;;;;;;;;5080912;28;20287;-19
2022/09/22 03:08:48;;;;;;;2.38;1.60;;;;;;;;;;5071977;28;20271;-19
2022/09/22 03:11:15;;;;;;;4.60;2.08;;;;;;;;;;5071544;28;20237;-19
2022/09/22 03:13:43;;;;;;;3.08;1.80;;;;;;;;;;5089773;28;20266;-19
2022/09/22 03:16:10;;;;;;;2.50;1.88;;;;;;;;;;5081665;28;20229;-19
2022/09/22 03:18:39;;;;;;;2.10;1.58;;;;;;;;;;5071724;28;20612;-19
2022/09/22 03:21:06;;;;;;;1.50;1.40;;;;;;;;;;5071136;28;21048;-19
2022/09/22 03:23:34;;;;;;;4.35;1.90;;;;;;;;;;5086852;28;20248;-19
2022/09/22 03:26:01;;;;;;;3.40;1.63;;;;;;;;;;5071212;28;20237;-19
2022/09/22 03:28:29;;;;;;;4.28;1.98;;;;;;;;;;5081844;28;20237;-19
2022/09/22 03:30:56;;;;;;;1.73;1.63;;;;;;;;;;5078643;28;20649;-18
2022/09/22 03:33:23;;;;;;;1.75;1.52;;;;;;;;;;5085706;28;20256;-19
2022/09/22 03:35:52;;;;;;;2.22;1.60;;;;;;;;;;5091363;28;20228;-18
2022/09/22 03:38:19;;;;;;;3.42;2.05;;;;;;;;;;5088017;28;20220;-18
2022/09/22 03:40:51;;;;;;;1.90;1.60;;;;;;;;;;5071065;28;20302;-19
2022/09/22 03:43:18;;;;;;;2.17;1.70;;;;;;;;;;5071924;28;20297;-19
2022/09/22 03:45:45;;;;;;;3.70;2.15;;;;;;;;;;5071244;28;20229;-19
2022/09/22 03:48:13;;;;;;;2.45;1.88;;;;;;;;;;5071253;28;20225;-19
2022/09/22 03:50:40;;;;;;;3.10;2.13;;;;;;;;;;5069351;28;20225;-18
2022/09/22 03:53:09;;;;;;;1.90;1.70;;;;;;;;;;5083826;28;21058;-19
2022/09/22 03:55:36;;;;;;;2.13;1.67;;;;;;;;;;5091091;28;20698;-19
2022/09/22 03:58:04;;;;;;;2.35;2.00;;;;;;;;;;5091465;28;20852;-19
2022/09/22 04:00:31;;;;;;;2.55;1.60;;;;;;;;;;5086935;28;20237;-19
2022/09/22 04:02:58;;;;;;;3.65;1.90;;;;;;;;;;5081587;28;20311;-18
2022/09/22 04:05:26;;;;;;;2.45;1.80;;;;;;;;;;5091272;28;20274;-18
2022/09/22 04:07:53;;;;;;;3.15;1.80;;;;;;;;;;5091094;28;20290;-18
2022/09/22 04:10:22;;;;;;;3.35;1.90;;;;;;;;;;5077405;28;20704;-18
2022/09/22 04:12:49;;;;;;;2.42;1.42;;;;;;;;;;5069920;28;20238;-18
2022/09/22 04:15:17;;;;;;;3.70;1.85;;;;;;;;;;5070646;28;20229;-18
2022/09/22 04:17:45;;;;;;;1.90;1.73;;;;;;;;;;5070945;28;20276;-18
2022/09/22 04:20:13;;;;;;;1.70;1.60;;;;;;;;;;5082537;28;20402;-18
2022/09/22 04:22:40;;;;;;;2.03;1.55;;;;;;;;;;5085357;28;20245;-18
2022/09/22 04:25:08;;;;;;;2.65;1.90;;;;;;;;;;5070930;28;20226;-18
2022/09/22 04:27:37;;;;;;;3.97;1.70;;;;;;;;;;5070205;28;20287;-18
2022/09/22 04:30:05;;;;;;;2.70;1.80;;;;;;;;;;5081178;28;20233;-18
2022/09/22 04:32:33;;;;;;;2.30;1.80;;;;;;;;;;5065043;28;20233;-18
2022/09/22 04:35:00;;;;;;;1.45;1.33;;;;;;;;;;5069995;28;20241;-18
2022/09/22 04:37:27;;;;;;;1.90;1.58;;;;;;;;;;5070526;28;20225;-18
2022/09/22 04:39:55;;;;;;;3.35;1.50;;;;;;;;;;5070282;28;20291;-19
2022/09/22 04:42:22;;;;;;;2.33;1.80;;;;;;;;;;5070370;28;20256;-18
2022/09/22 04:44:51;;;;;;;2.55;1.60;;;;;;;;;;5069923;28;20270;-18
2022/09/22 04:47:18;;;;;;;3.25;1.42;;;;;;;;;;5070611;28;20287;-18
2022/09/22 04:49:45;;;;;;;2.55;1.92;;;;;;;;;;5077541;28;20977;-19
2022/09/22 04:52:13;;;;;;;7.38;2.17;;;;;;;;;;5090065;28;20263;-19
2022/09/22 04:54:40;;;;;;;1.95;1.77;;;;;;;;;;5090541;28;20233;-19
2022/09/22 04:57:08;;;;;;;2.35;1.85;;;;;;;;;;5072675;28;20225;-18
2022/09/22 04:59:35;;;;;;;1.83;1.65;;;;;;;;;;5070334;28;20263;-18
2022/09/22 05:02:04;;;;;;;2.30;1.77;;;;;;;;;;5065666;28;20279;-18
2022/09/22 05:04:31;;;;;;;3.90;1.70;;;;;;;;;;5074101;28;20210;-18
2022/09/22 05:06:58;;;;;;;2.70;1.52;;;;;;;;;;5072895;28;20237;-18
2022/09/22 05:09:27;;;;;;;4.43;1.45;;;;;;;;;;5068905;28;20256;-19
2022/09/22 05:12:00;;;;;;;2.50;1.80;;;;;;;;;;5061974;28;20234;-18
2022/09/22 05:14:27;;;;;;;1.73;1.45;;;;;;;;;;5064388;28;21007;-19
2022/09/22 05:16:55;;;;;;;2.13;1.80;;;;;;;;;;5072164;28;20279;-18
2022/09/22 05:19:24;;;;;;;2.20;1.92;;;;;;;;;;5074844;28;20233;-18
2022/09/22 05:21:52;;;;;;;1.77;1.60;;;;;;;;;;5092969;28;20241;-18
2022/09/22 05:24:20;;;;;;;2.08;1.70;;;;;;;;;;5093677;28;20307;-19
2022/09/22 05:26:47;;;;;;;2.83;1.55;;;;;;;;;;5093690;28;20362;-19
2022/09/22 05:29:17;;;;;;;2.40;1.80;;;;;;;;;;5085114;28;20780;-19
2022/09/22 05:31:44;;;;;;;2.15;1.67;;;;;;;;;;5079624;28;20241;-18
2022/09/22 05:34:12;;;;;;;2.70;1.85;;;;;;;;;;5073445;28;20435;-18
2022/09/22 05:36:40;;;;;;;2.47;2.10;;;;;;;;;;5073064;28;20285;-18
2022/09/22 05:39:08;;;;;;;2.63;1.70;;;;;;;;;;5073173;28;20214;-19
2022/09/22 05:41:35;;;;;;;2.45;1.90;;;;;;;;;;5089213;28;20233;-18
2022/09/22 05:44:03;;;;;;;3.45;1.80;;;;;;;;;;5093155;28;20809;-18
2022/09/22 05:46:30;;;;;;;1.83;1.52;;;;;;;;;;5080848;28;20275;-19
2022/09/22 05:48:57;;;;;;;2.13;1.80;;;;;;;;;;5066137;28;20308;-18
2022/09/22 05:51:24;;;;;;;3.88;2.20;;;;;;;;;;5065668;28;20653;-18
2022/09/22 05:53:53;;;;;;;1.73;1.63;;;;;;;;;;5062287;28;20234;-18
2022/09/22 05:56:21;;;;;;;2.40;1.90;;;;;;;;;;5061040;28;20674;-18
2022/09/22 05:58:48;;;;;;;3.03;1.85;;;;;;;;;;5062509;28;20284;-18
2022/09/22 06:01:15;;;;;;;6.32;1.80;;;;;;;;;;5078019;28;20229;-17
2022/09/22 06:03:43;;;;;;;2.55;1.80;;;;;;;;;;5071941;28;20376;-19
2022/09/22 06:06:10;;;;;;;3.88;2.03;;;;;;;;;;5071370;28;20707;-18
2022/09/22 06:08:38;;;;;;;9.27;2.22;;;;;;;;;;5072423;28;20229;-18
2022/09/22 06:11:06;;;;;;;13.23;2.30;;;;;;;;;;5072294;28;20222;-19
2022/09/22 06:13:34;;;;;;;7.10;2.13;;;;;;;;;;5070991;28;20237;-18
2022/09/22 06:16:01;;;;;;;7.28;2.33;;;;;;;;;;5072202;28;20234;-19
2022/09/22 06:18:30;;;;;;;8.90;2.33;;;;;;;;;;5072868;28;21048;-19
2022/09/22 06:20:58;;;;;;;3.58;1.90;;;;;;;;;;5076514;28;20266;-19
2022/09/22 06:23:25;;;;;;;6.38;2.28;;;;;;;;;;5088203;28;20616;-19
2022/09/22 06:25:56;;;;;;;10.00;2.10;;;;;;;;;;5072119;28;21021;-19
2022/09/22 06:28:25;;;;;;;4.88;1.95;;;;;;;;;;5072146;28;20232;-19
2022/09/22 06:30:52;;;;;;;4.18;2.05;;;;;;;;;;5071648;28;20683;-19
2022/09/22 06:33:22;;;;;;;8.65;2.17;;;;;;;;;;5071750;28;20240;-19
2022/09/22 06:35:50;;;;;;;7.43;1.95;;;;;;;;;;5071787;28;20245;-18
2022/09/22 06:38:17;;;;;;;7.35;1.77;;;;;;;;;;5072074;28;20279;-18
2022/09/22 06:40:44;;;;;;;5.72;2.50;;;;;;;;;;5090833;28;20277;-18
2022/09/22 06:43:16;;;;;;;4.55;2.42;;;;;;;;;;5092743;28;20216;-19
2022/09/22 06:45:45;;;;;;;8.88;2.10;;;;;;;;;;5086667;28;20233;-18
2022/09/22 06:48:12;;;;;;;10.15;1.95;;;;;;;;;;5072311;28;21012;-19
2022/09/22 06:50:40;;;;;;;7.03;2.15;;;;;;;;;;5085171;28;20229;-19
2022/09/22 06:53:10;;;;;;;4.32;2.05;;;;;;;;;;5072216;28;20283;-18
2022/09/22 06:55:40;;;;;;;4.43;2.35;;;;;;;;;;5070718;28;20246;-18
2022/09/22 06:58:08;;;;;;;11.48;1.80;;;;;;;;;;5071467;28;21108;-18
2022/09/22 07:00:35;;;;;;;5.88;2.03;;;;;;;;;;5083911;28;20237;-18
2022/09/22 07:03:06;;;;;;;14.45;2.75;;;;;;;;;;5071574;28;20782;-18
2022/09/22 07:05:33;;;;;;;21.48;2.97;;;;;;;;;;5071374;28;20229;-18
2022/09/22 07:08:01;;;;;;;17.98;3.03;;;;;;;;;;5070752;28;20230;-18
2022/09/22 07:10:28;;;;;;;20.80;2.80;;;;;;;;;;5082735;28;20284;-17
2022/09/22 07:12:57;;;;;;;17.73;2.95;;;;;;;;;;5070634;28;20310;-18
2022/09/22 07:15:25;;;;;;;29.95;4.07;;;;;;;;;;5071350;28;20221;-18
2022/09/22 07:17:52;;;;;;;13.02;3.95;;;;;;;;;;5071152;28;20260;-18
2022/09/22 07:20:22;;;;;;;23.70;4.32;;;;;;;;;;5084104;28;20232;-18
2022/09/22 07:22:49;;;;;;;14.80;4.20;;;;;;;;;;5091034;28;20290;-18
2022/09/22 07:25:16;;;;;;;20.58;4.35;;;;;;;;;;5086559;28;20287;-18
2022/09/22 07:27:44;;;;;;;15.10;3.50;;;;;;;;;;5071922;28;20214;-18
2022/09/22 07:30:12;;;;;;;18.58;3.72;;;;;;;;;;5071892;28;20226;-17
2022/09/22 07:32:40;;;;;;;19.10;4.60;;;;;;;;;;5067614;28;20233;-18
2022/09/22 07:35:08;;;;;;;15.45;3.00;;;;;;;;;;5070793;28;20964;-18
2022/09/22 07:37:39;;;;;;;15.68;3.75;;;;;;;;;;5070553;28;20267;-18
2022/09/22 07:40:07;;;;;;;9.93;4.40;;;;;;;;;;5080914;28;20240;-17
2022/09/22 07:42:34;;;;;;;10.15;4.68;;;;;;;;;;5070885;28;20229;-18
2022/09/22 07:45:14;;;;;;;10.23;4.72;;;;;;;;;;5070250;28;20225;-18
2022/09/22 07:50:27;;;;;;;10.60;4.95;;;;;;;;;;5083805;28;20243;-19
2022/09/22 07:52:56;;;;;;;13.57;4.38;;;;;;;;;;5074742;28;20291;-19
2022/09/22 07:55:23;;;;;;;8.43;4.18;;;;;;;;;;5070420;28;20218;-18
2022/09/22 07:57:55;;;;;;;6.80;4.05;;;;;;;;;;5070407;28;20236;-19
2022/09/22 08:00:22;;;;;;;6.53;3.88;;;;;;;;;;5079722;28;20225;-18
2022/09/22 08:02:53;;;;;;;13.20;3.67;;;;;;;;;;5069497;28;20229;-18
2022/09/22 08:05:20;;;;;;;11.38;3.40;;;;;;;;;;5070437;28;21168;-19
2022/09/22 08:07:47;;;;;;;8.80;4.05;;;;;;;;;;5069916;28;20213;-19
2022/09/22 08:10:16;;;;;;;6.90;3.47;;;;;;;;;;5079050;28;20229;-19
2022/09/22 08:12:43;;;;;;;7.25;3.70;;;;;;;;;;5090173;28;20711;-19
2022/09/22 08:15:11;;;;;;;7.22;3.63;;;;;;;;;;5072375;28;20283;-19
2022/09/22 08:17:38;;;;;;;5.15;3.08;;;;;;;;;;5070376;28;20265;-19
2022/09/22 08:20:07;;;;;;;10.23;3.53;;;;;;;;;;5078218;28;20224;-18
2022/09/22 08:22:35;;;;;;;8.18;3.45;;;;;;;;;;5090263;28;20237;-19
2022/09/22 08:25:02;;;;;;;7.18;4.07;;;;;;;;;;5089243;28;20798;-18
2022/09/22 08:27:35;;;;;;;10.10;4.45;;;;;;;;;;5090388;28;20700;-18
2022/09/22 08:30:03;;;;;;;7.45;3.45;;;;;;;;;;5080271;28;20883;-18
2022/09/22 08:32:30;;;;;;;10.50;3.90;;;;;;;;;;5069156;28;20421;-19
2022/09/22 08:34:57;;;;;;;9.30;3.25;;;;;;;;;;5068892;28;21007;-18
2022/09/22 08:37:26;;;;;;;11.07;3.20;;;;;;;;;;5071879;28;20294;-18
2022/09/22 08:39:53;;;;;;;13.18;3.83;;;;;;;;;;5079235;28;20233;-19
2022/09/22 08:42:22;;;;;;;10.77;3.67;;;;;;;;;;5093625;28;21213;-19
2022/09/22 08:44:53;;;;;;;29.27;4.13;;;;;;;;;;5094206;28;20278;-19
2022/09/22 08:51:50;;;;;;;11.27;3.78;;;;;;;;;;5075258;28;20234;-19
2022/09/22 08:53:01;;;;;;;13.68;4.53;;;;;;;;;;5072036;28;20218;-19
2022/09/22 08:55:29;;;;;;;12.65;3.92;;;;;;;;;;5072822;28;21243;-18
2022/09/22 08:57:58;;;;;;;10.10;3.80;;;;;;;;;;5072950;28;20319;-18
2022/09/22 09:00:28;;;;;;;9.00;3.60;;;;;;;;;;5079612;28;20234;-18
2022/09/22 09:02:58;;;;;;;8.13;3.55;;;;;;;;;;5074051;28;20226;-18
2022/09/22 09:05:30;;;;;;;10.70;3.90;;;;;;;;;;5073400;28;20312;-19
2022/09/22 09:07:59;;;;;;;9.05;4.00;;;;;;;;;;5073744;28;20724;-19
2022/09/22 09:10:31;;;;;;;7.20;3.50;;;;;;;;;;5073379;28;20236;-18
2022/09/22 09:13:02;;;;;;;9.63;3.55;;;;;;;;;;5073674;28;20677;-18
2022/09/22 09:15:40;;;;;;;8.60;3.80;;;;;;;;;;5073507;28;20315;-18
2022/09/22 09:18:10;;;;;;;7.43;3.13;;;;;;;;;;5073537;28;20233;-19
2022/09/22 09:20:38;;;;;;;8.63;3.97;;;;;;;;;;5082949;28;20241;-18
2022/09/22 09:23:08;;;;;;;8.27;3.70;;;;;;;;;;5093724;28;20229;-18
2022/09/22 09:25:36;;;;;;;5.57;3.10;;;;;;;;;;5093110;28;20221;-19
2022/09/22 09:28:04;;;;;;;10.63;3.17;;;;;;;;;;5093847;28;20217;-18
2022/09/22 09:30:32;;;;;;;9.38;3.13;;;;;;;;;;5082903;28;20246;-18
2022/09/22 09:33:01;;;;;;;8.52;3.53;;;;;;;;;;5073663;28;20577;-18
2022/09/22 09:35:31;;;;;;;4.65;3.00;;;;;;;;;;5073465;28;20218;-19
2022/09/22 09:37:58;;;;;;;5.38;3.08;;;;;;;;;;5073167;28;20892;-19
2022/09/22 09:40:26;;;;;;;5.57;3.40;;;;;;;;;;5081684;28;20229;-19
2022/09/22 09:42:55;;;;;;;6.45;3.65;;;;;;;;;;5077302;28;20970;-18
2022/09/22 09:45:24;;;;;;;5.82;3.50;;;;;;;;;;5072765;28;20225;-19
2022/09/22 09:47:55;;;;;;;6.13;3.17;;;;;;;;;;5071981;28;20693;-18
2022/09/22 09:50:30;;;;;;;5.15;2.78;;;;;;;;;;5072806;28;20220;-19
2022/09/22 09:52:59;;;;;;;6.90;3.05;;;;;;;;;;5072305;28;20255;-18
2022/09/22 09:55:26;;;;;;;3.10;2.35;;;;;;;;;;5073471;28;20225;-18
2022/09/22 09:58:04;;;;;;;8.45;3.13;;;;;;;;;;5072932;28;20243;-18
2022/09/22 10:00:31;;;;;;;5.07;2.95;;;;;;;;;;5077825;28;20269;-19
2022/09/22 10:03:13;;;;;;;7.28;3.45;;;;;;;;;;5072606;28;20233;-18
2022/09/22 10:05:42;;;;;;;5.05;3.05;;;;;;;;;;5052508;28;20276;-18
2022/09/22 10:08:19;;;;;;;7.30;3.42;;;;;;;;;;5052535;28;20280;-18
2022/09/22 10:10:47;;;;;;;4.88;2.55;;;;;;;;;;5074315;28;21089;-18
2022/09/22 10:13:23;;;;;;;4.45;2.50;;;;;;;;;;5092902;28;20225;-18
2022/09/22 10:16:01;;;;;;;5.03;2.85;;;;;;;;;;5077060;28;20307;-18
2022/09/22 10:18:33;;;;;;;6.20;2.60;;;;;;;;;;5072813;28;20241;-18
2022/09/22 10:21:05;;;;;;;5.05;2.13;;;;;;;;;;5071944;28;20241;-19
2022/09/22 10:23:33;;;;;;;3.72;2.75;;;;;;;;;;5072638;28;20271;-18
2022/09/22 10:26:17;;;;;;;3.85;2.15;;;;;;;;;;5071681;28;20225;-18
2022/09/22 10:28:49;;;;;;;3.42;2.22;;;;;;;;;;5072316;28;20288;-18
2022/09/22 10:31:20;;;;;;;4.80;2.15;;;;;;;;;;5076441;28;20676;-19
2022/09/22 10:33:54;;;;;;;5.80;2.15;;;;;;;;;;5072427;28;20248;-19
2022/09/22 10:36:24;;;;;;;3.80;2.42;;;;;;;;;;5071821;28;20405;-19
2022/09/22 10:38:52;;;;;;;6.97;2.50;;;;;;;;;;5072427;28;20298;-19
2022/09/22 10:41:29;;;;;;;4.72;2.17;;;;;;;;;;5086660;28;20241;-19
2022/09/22 10:43:59;;;;;;;3.67;2.70;;;;;;;;;;5092377;28;20343;-18
2022/09/22 10:46:51;;;;;;;5.28;2.40;;;;;;;;;;5078730;28;20301;-19
2022/09/22 10:49:21;;;;;;;4.93;2.13;;;;;;;;;;5071630;28;20703;-18
2022/09/22 10:51:56;;;;;;;4.65;2.22;;;;;;;;;;5090124;28;20228;-18
2022/09/22 10:54:40;;;;;;;4.13;1.85;;;;;;;;;;5092451;28;20310;-19
2022/09/22 10:57:11;;;;;;;4.10;1.58;;;;;;;;;;5072182;28;20233;-18
2022/09/22 10:59:41;;;;;;;2.80;1.80;;;;;;;;;;5078226;28;20229;-19
2022/09/22 11:02:18;;;;;;;3.03;2.03;;;;;;;;;;5072361;28;20580;-18
2022/09/22 11:04:53;;;;;;;3.08;1.92;;;;;;;;;;5071975;28;20229;-18
2022/09/22 11:13:05;;;;;;;2.88;2.05;;;;;;;;;;5037632;28;20257;-18
2022/09/22 11:15:39;;;;;;;4.32;2.28;;;;;;;;;;5072130;28;20230;-18
2022/09/22 11:18:11;;;;;;;3.78;2.05;;;;;;;;;;5072223;28;20272;-19
2022/09/22 11:20:39;;;;;;;5.20;2.30;;;;;;;;;;5072204;28;20679;-19
2022/09/22 11:23:17;;;;;;;5.28;2.30;;;;;;;;;;5071364;28;20287;-18
2022/09/22 11:25:47;;;;;;;7.95;3.17;;;;;;;;;;5072550;28;20681;-19
2022/09/22 11:28:19;;;;;;;11.30;3.13;;;;;;;;;;5072340;28;20752;-19
2022/09/22 11:30:49;;;;;;;12.25;2.85;;;;;;;;;;5072553;28;20237;-19
2022/09/22 11:33:26;;;;;;;12.38;2.63;;;;;;;;;;5069962;28;21005;-18
2022/09/22 11:36:00;;;;;;;15.25;3.10;;;;;;;;;;5070070;28;20684;-18
2022/09/22 11:38:31;;;;;;;8.45;3.28;;;;;;;;;;5067419;28;20708;-19
2022/09/22 11:41:04;;;;;;;12.25;3.55;;;;;;;;;;5067962;28;20287;-18
2022/09/22 11:43:38;;;;;;;9.65;2.70;;;;;;;;;;5080937;28;20786;-18
2022/09/22 11:46:06;;;;;;;16.38;2.50;;;;;;;;;;5082329;28;20227;-19
2022/09/22 11:48:37;;;;;;;11.60;2.42;;;;;;;;;;5070754;28;20233;-18
2022/09/22 11:51:21;;;;;;;11.07;2.53;;;;;;;;;;5067272;28;20766;-18
2022/09/22 11:53:56;;;;;;;11.73;2.72;;;;;;;;;;5060186;28;20265;-19
2022/09/22 11:56:34;;;;;;;8.00;2.50;;;;;;;;;;5058802;28;20229;-18
2022/09/22 11:59:02;;;;;;;10.52;2.33;;;;;;;;;;5058105;28;20323;-18
2022/09/22 12:01:31;;;;;;;5.95;2.35;;;;;;;;;;5063071;28;20640;-18
2022/09/22 12:04:00;;;;;;;13.68;2.38;;;;;;;;;;5060891;28;21005;-18
2022/09/22 12:06:30;;;;;;;7.47;2.13;;;;;;;;;;5060208;28;20233;-18
2022/09/22 12:09:00;;;;;;;18.30;2.95;;;;;;;;;;5059475;28;20217;-18
2022/09/22 12:11:27;;;;;;;13.07;2.72;;;;;;;;;;5077247;28;20386;-18
2022/09/22 12:13:55;;;;;;;17.75;3.00;;;;;;;;;;5094149;28;20220;-18
2022/09/22 12:16:23;;;;;;;7.85;2.05;;;;;;;;;;5082420;28;20692;-18
2022/09/22 12:18:52;;;;;;;13.85;2.13;;;;;;;;;;5073815;28;20407;-19
2022/09/22 12:21:23;;;;;;;9.25;2.42;;;;;;;;;;5082834;28;20236;-17
2022/09/22 12:23:51;;;;;;;10.93;1.90;;;;;;;;;;5092072;28;20278;-18
2022/09/22 12:26:26;;;;;;;7.35;1.88;;;;;;;;;;5072629;28;20407;-18
2022/09/22 12:28:53;;;;;;;6.07;1.75;;;;;;;;;;5073816;28;20209;-18
2022/09/22 12:31:20;;;;;;;11.68;2.20;;;;;;;;;;5073892;28;20257;-19
2022/09/22 12:33:48;;;;;;;7.55;1.90;;;;;;;;;;5074045;28;20747;-18
2022/09/22 12:36:16;;;;;;;10.40;1.90;;;;;;;;;;5073618;28;20635;-19
2022/09/22 12:38:43;;;;;;;12.60;1.95;;;;;;;;;;5072815;28;20312;-18
2022/09/22 12:41:16;;;;;;;6.47;1.45;;;;;;;;;;5072970;28;20275;-18
2022/09/22 12:43:46;;;;;;;4.20;1.65;;;;;;;;;;5072794;28;20226;-20
2022/09/22 12:46:16;;;;;;;7.35;1.40;;;;;;;;;;5073528;28;20213;-21
2022/09/22 12:48:44;;;;;;;3.80;1.83;;;;;;;;;;5072027;28;20264;-20
2022/09/22 12:51:14;;;;;;;4.75;1.90;;;;;;;;;;5081093;28;20332;-18
2022/09/22 12:53:42;;;;;;;6.07;1.42;;;;;;;;;;5053399;28;20681;-18
2022/09/22 12:56:25;;;;;;;6.70;2.00;;;;;;;;;;5052988;28;20253;-18
2022/09/22 12:58:54;;;;;;;3.55;1.70;;;;;;;;;;5051664;28;20669;-19
2022/09/22 13:01:32;;;;;;;3.22;1.50;;;;;;;;;;5063738;28;20280;-18
2022/09/22 13:04:15;;;;;;;4.03;1.42;;;;;;;;;;5073293;28;20692;-18
2022/09/22 13:07:04;;;;;;;6.28;1.80;;;;;;;;;;5073372;28;20229;-19
2022/09/22 13:09:31;;;;;;;5.70;1.48;;;;;;;;;;5068017;28;20760;-18
2022/09/22 13:12:20;;;;;;;6.03;1.30;;;;;;;;;;5086411;28;20229;-18
2022/09/22 13:15:10;;;;;;;6.70;1.50;;;;;;;;;;5085234;28;20225;-18
2022/09/22 13:17:41;;;;;;;6.45;1.48;;;;;;;;;;5073459;28;20225;-19
2022/09/22 13:20:18;;;;;;;7.03;1.50;;;;;;;;;;5072725;28;20280;-19
2022/09/22 13:22:45;;;;;;;4.60;1.15;;;;;;;;;;5077749;28;20746;-20
2022/09/22 13:25:13;;;;;;;5.93;1.45;;;;;;;;;;5072604;28;20281;-20
2022/09/22 13:27:41;;;;;;;2.83;1.23;;;;;;;;;;5072905;28;20845;-17
2022/09/22 13:30:13;;;;;;;2.25;1.30;;;;;;;;;;5072533;28;20229;-18
2022/09/22 13:32:46;;;;;;;3.47;1.40;;;;;;;;;;5072366;28;20225;-18
2022/09/22 13:35:23;;;;;;;4.40;1.20;;;;;;;;;;5073226;28;20287;-19
2022/09/22 13:37:52;;;;;;;8.95;1.77;;;;;;;;;;5073472;28;20326;-18
2022/09/22 13:40:19;;;;;;;7.93;2.00;;;;;;;;;;5072758;28;21090;-19
2022/09/22 13:42:47;;;;;;;6.85;1.48;;;;;;;;;;5093027;28;20241;-18
2022/09/22 13:45:17;;;;;;;8.55;1.60;;;;;;;;;;5074758;28;20230;-18
2022/09/22 13:47:45;;;;;;;7.07;1.70;;;;;;;;;;5073048;28;20226;-18
2022/09/22 13:50:12;;;;;;;5.22;1.67;;;;;;;;;;5074288;28;20225;-18
2022/09/22 13:52:41;;;;;;;9.98;1.50;;;;;;;;;;5092646;28;20225;-18
2022/09/22 13:55:08;;;;;;;7.60;1.98;;;;;;;;;;5072296;28;20240;-18
2022/09/22 13:57:36;;;;;;;9.35;1.45;;;;;;;;;;5072653;28;20325;-18
2022/09/22 14:00:05;;;;;;;10.38;1.70;;;;;;;;;;5072217;28;20234;-18
2022/09/22 14:02:34;;;;;;;10.65;2.40;;;;;;;;;;5072446;28;20233;-19
2022/09/22 14:05:02;;;;;;;11.23;1.58;;;;;;;;;;5069158;28;20228;-18
2022/09/22 14:07:31;;;;;;;14.35;1.80;;;;;;;;;;5070913;28;20287;-19
2022/09/22 14:10:02;;;;;;;6.95;2.00;;;;;;;;;;5069044;28;20256;-18
2022/09/22 14:12:29;;;;;;;10.25;1.33;;;;;;;;;;5071543;28;20241;-18
2022/09/22 14:15:12;;;;;;;12.55;2.22;;;;;;;;;;5072189;28;20778;-18
2022/09/22 14:17:40;;;;;;;10.07;1.35;;;;;;;;;;5063698;28;20237;-18
2022/09/22 14:20:08;;;;;;;6.18;1.33;;;;;;;;;;5071711;28;20753;-19
2022/09/22 14:22:40;;;;;;;6.47;1.42;;;;;;;;;;5081032;28;20326;-18
2022/09/22 14:25:20;;;;;;;11.70;1.70;;;;;;;;;;5092337;28;20244;-19
2022/09/22 14:27:48;;;;;;;9.05;1.63;;;;;;;;;;5086026;28;20229;-20
2022/09/22 14:30:16;;;;;;;8.45;1.40;;;;;;;;;;5070870;28;20757;-18
2022/09/22 14:32:46;;;;;;;8.43;1.65;;;;;;;;;;5072189;28;20233;-18
2022/09/22 14:35:17;;;;;;;10.82;1.50;;;;;;;;;;5070987;28;20230;-17
2022/09/22 14:37:45;;;;;;;4.32;1.33;;;;;;;;;;5071561;28;20580;-18
2022/09/22 14:40:14;;;;;;;11.25;1.33;;;;;;;;;;5070957;28;20244;-20
2022/09/22 14:42:41;;;;;;;12.27;1.40;;;;;;;;;;5071529;28;20299;-20
2022/09/22 14:45:17;;;;;;;12.18;1.40;;;;;;;;;;5071569;28;20308;-20
2022/09/22 14:47:45;;;;;;;7.07;1.70;;;;;;;;;;5071472;28;20288;-17
2022/09/22 14:50:15;;;;;;;5.93;1.52;;;;;;;;;;5071082;28;20230;-18
2022/09/22 14:52:45;;;;;;;6.55;1.38;;;;;;;;;;5071433;28;20217;-18
2022/09/22 14:55:15;;;;;;;7.00;1.30;;;;;;;;;;5070916;28;20233;-18
2022/09/22 14:57:43;;;;;;;13.40;1.65;;;;;;;;;;5070845;28;20233;-20
2022/09/22 15:02:59;;;;;;;9.50;2.00;;;;;;;;;;5073209;28;20768;-19
2022/09/22 15:05:27;;;;;;;8.85;1.55;;;;;;;;;;5091685;28;20213;-19
2022/09/22 15:07:57;;;;;;;14.32;1.65;;;;;;;;;;5091664;28;20224;-19
2022/09/22 15:10:25;;;;;;;15.07;1.65;;;;;;;;;;5091395;28;20225;-19